createdAt,value
2022-09-15T00:00:58.578Z,18.70
2022-09-15T00:03:25.157Z,18.66
2022-09-15T00:05:54.080Z,18.57
2022-09-15T00:08:21.433Z,18.52
2022-09-15T00:10:57.273Z,18.54
2022-09-15T00:13:25.131Z,18.47
2022-09-15T00:15:51.948Z,18.38
2022-09-15T00:18:18.962Z,18.35
2022-09-15T00:20:46.265Z,18.40
2022-09-15T00:23:14.335Z,18.36
2022-09-15T00:25:45.995Z,18.30
2022-09-15T00:28:14.104Z,18.28
2022-09-15T00:30:45.738Z,18.25
2022-09-15T00:33:13.723Z,18.24
2022-09-15T00:35:41.574Z,18.21
2022-09-15T00:38:09.862Z,18.23
2022-09-15T00:40:54.340Z,18.16
2022-09-15T00:43:41.535Z,18.19
2022-09-15T00:46:08.087Z,18.24
2022-09-15T00:48:37.853Z,18.26
2022-09-15T00:51:06.615Z,18.34
2022-09-15T00:53:34.029Z,18.25
2022-09-15T00:56:02.299Z,18.17
2022-09-15T00:58:46.460Z,18.19
2022-09-15T01:01:15.493Z,18.26
2022-09-15T01:03:42.500Z,18.28
2022-09-15T01:06:26.552Z,18.30
2022-09-15T01:09:19.015Z,18.21
2022-09-15T01:11:45.394Z,18.15
2022-09-15T01:14:11.694Z,18.15
2022-09-15T01:17:07.197Z,18.12
2022-09-15T01:20:17.390Z,18.10
2022-09-15T01:22:58.961Z,18.18
2022-09-15T01:25:40.089Z,18.17
2022-09-15T01:28:30.081Z,18.19
2022-09-15T01:31:09.239Z,18.20
2022-09-15T01:33:56.916Z,18.09
2022-09-15T01:36:27.862Z,18.13
2022-09-15T01:39:05.594Z,18.16
2022-09-15T01:41:43.105Z,18.26
2022-09-15T01:44:13.314Z,18.25
2022-09-15T01:46:46.895Z,18.20
2022-09-15T01:49:23.604Z,18.29
2022-09-15T01:51:51.987Z,18.26
2022-09-15T01:54:26.385Z,18.24
2022-09-15T01:56:52.858Z,18.10
2022-09-15T01:59:19.455Z,18.14
2022-09-15T02:01:52.871Z,18.08
2022-09-15T02:04:29.561Z,18.17
2022-09-15T02:07:03.940Z,18.15
2022-09-15T02:09:38.518Z,18.24
2022-09-15T02:12:14.382Z,18.22
2022-09-15T02:14:55.858Z,18.37
2022-09-15T02:17:27.754Z,18.26
2022-09-15T02:20:02.864Z,18.31
2022-09-15T02:22:36.195Z,18.24
2022-09-15T02:25:11.093Z,18.23
2022-09-15T02:27:44.225Z,18.18
2022-09-15T02:30:14.385Z,18.22
2022-09-15T02:32:47.327Z,18.22
2022-09-15T02:35:15.482Z,18.25
2022-09-15T02:37:42.177Z,18.27
2022-09-15T02:40:09.132Z,18.31
2022-09-15T02:42:39.208Z,18.45
2022-09-15T02:45:06.752Z,18.40
2022-09-15T02:47:33.106Z,18.33
2022-09-15T02:50:00.011Z,18.20
2022-09-15T02:52:26.402Z,18.44
2022-09-15T02:54:53.482Z,18.33
2022-09-15T02:57:19.849Z,18.23
2022-09-15T03:00:04.797Z,18.35
2022-09-15T03:02:32.290Z,18.66
2022-09-15T03:04:58.827Z,18.29
2022-09-15T03:07:25.328Z,18.32
2022-09-15T03:09:51.620Z,18.47
2022-09-15T03:12:17.997Z,18.55
2022-09-15T03:14:44.468Z,18.61
2022-09-15T03:17:10.951Z,18.62
2022-09-15T03:19:37.372Z,18.51
2022-09-15T03:22:03.782Z,18.49
2022-09-15T03:24:30.091Z,18.63
2022-09-15T03:26:56.397Z,18.54
2022-09-15T03:29:23.067Z,18.61
2022-09-15T03:31:49.685Z,18.70
2022-09-15T03:34:16.108Z,18.84
2022-09-15T03:36:42.605Z,18.88
2022-09-15T03:39:11.137Z,19.09
2022-09-15T03:41:37.592Z,19.28
2022-09-15T03:44:04.098Z,19.50
2022-09-15T03:46:30.423Z,19.59
2022-09-15T03:48:57.456Z,19.41
2022-09-15T03:51:24.240Z,19.45
2022-09-15T03:53:50.542Z,18.82
2022-09-15T03:56:26.170Z,18.55
2022-09-15T03:58:53.678Z,18.30
2022-09-15T04:01:20.815Z,18.25
2022-09-15T04:03:50.813Z,18.18
2022-09-15T04:06:19.317Z,18.29
2022-09-15T04:08:45.678Z,18.26
2022-09-15T04:11:12.520Z,18.29
2022-09-15T04:13:40.379Z,18.19
2022-09-15T04:16:10.188Z,18.06
2022-09-15T04:18:37.164Z,18.10
2022-09-15T04:21:10.696Z,18.20
2022-09-15T04:23:37.213Z,18.16
2022-09-15T04:26:06.426Z,18.18
2022-09-15T04:28:35.201Z,18.41
2022-09-15T04:31:07.283Z,18.38
2022-09-15T04:33:34.353Z,18.42
2022-09-15T04:36:02.251Z,18.54
2022-09-15T04:38:28.863Z,18.68
2022-09-15T04:40:55.431Z,18.75
2022-09-15T04:43:22.377Z,18.82
2022-09-15T04:45:49.127Z,18.86
2022-09-15T04:48:15.462Z,19.10
2022-09-15T04:50:42.179Z,19.38
2022-09-15T04:53:08.835Z,19.60
2022-09-15T04:55:35.783Z,19.80
2022-09-15T04:58:02.661Z,19.94
2022-09-15T05:00:30.312Z,19.90
2022-09-15T05:02:58.225Z,19.39
2022-09-15T05:05:25.317Z,19.28
2022-09-15T05:07:52.957Z,19.05
2022-09-15T05:10:20.173Z,18.60
2022-09-15T05:12:46.490Z,18.53
2022-09-15T05:15:12.820Z,18.61
2022-09-15T05:17:39.110Z,18.44
2022-09-15T05:20:05.773Z,18.51
2022-09-15T05:22:32.596Z,18.56
2022-09-15T05:24:58.874Z,18.41
2022-09-15T05:27:25.172Z,18.51
2022-09-15T05:30:09.750Z,18.58
2022-09-15T05:32:38.948Z,18.43
2022-09-15T05:35:06.745Z,18.17
2022-09-15T05:37:33.595Z,18.15
2022-09-15T05:39:59.963Z,18.20
2022-09-15T05:42:26.585Z,18.15
2022-09-15T05:44:52.896Z,18.10
2022-09-15T05:47:19.208Z,18.20
2022-09-15T05:49:45.924Z,18.26
2022-09-15T05:52:12.305Z,18.02
2022-09-15T05:54:38.613Z,18.03
2022-09-15T05:57:04.940Z,17.98
2022-09-15T05:59:31.326Z,18.15
2022-09-15T06:01:57.648Z,18.03
2022-09-15T06:04:24.019Z,18.02
2022-09-15T06:06:50.315Z,17.94
2022-09-15T06:09:18.647Z,17.86
2022-09-15T06:11:45.289Z,17.91
2022-09-15T06:14:13.338Z,17.96
2022-09-15T06:16:39.791Z,17.99
2022-09-15T06:19:06.367Z,18.04
2022-09-15T06:21:33.261Z,17.90
2022-09-15T06:24:03.194Z,17.95
2022-09-15T06:26:30.158Z,17.83
2022-09-15T06:29:01.378Z,17.86
2022-09-15T06:31:29.740Z,17.81
2022-09-15T06:33:57.591Z,17.81
2022-09-15T06:36:26.400Z,17.88
2022-09-15T06:38:53.363Z,17.88
2022-09-15T06:41:19.788Z,17.89
2022-09-15T06:43:48.971Z,17.82
2022-09-15T06:46:18.114Z,17.88
2022-09-15T06:48:48.138Z,17.80
2022-09-15T06:51:17.094Z,17.87
2022-09-15T06:53:44.118Z,17.92
2022-09-15T06:56:16.339Z,18.01
2022-09-15T06:58:43.933Z,17.97
2022-09-15T07:01:19.101Z,17.99
2022-09-15T07:03:46.336Z,17.94
2022-09-15T07:06:13.039Z,18.04
2022-09-15T07:08:40.774Z,18.08
2022-09-15T07:11:08.433Z,18.07
2022-09-15T07:13:35.010Z,18.01
2022-09-15T07:16:03.999Z,17.96
2022-09-15T07:18:31.854Z,18.02
2022-09-15T07:21:00.250Z,18.05
2022-09-15T07:23:27.175Z,18.04
2022-09-15T07:26:03.233Z,18.06
2022-09-15T07:28:29.526Z,18.09
2022-09-15T07:30:55.827Z,18.02
2022-09-15T07:33:22.371Z,17.97
2022-09-15T07:35:48.775Z,17.91
2022-09-15T07:38:15.086Z,17.94
2022-09-15T07:40:41.523Z,17.91
2022-09-15T07:43:07.962Z,17.91
2022-09-15T07:45:36.052Z,17.91
2022-09-15T07:48:02.685Z,17.83
2022-09-15T07:50:29.042Z,17.88
2022-09-15T07:52:56.555Z,17.86
2022-09-15T07:55:23.549Z,17.86
2022-09-15T07:57:57.915Z,17.83
2022-09-15T08:00:24.564Z,18.12
2022-09-15T08:02:50.932Z,18.26
2022-09-15T08:05:17.442Z,18.13
2022-09-15T08:07:43.797Z,18.08
2022-09-15T08:10:10.153Z,18.05
2022-09-15T08:12:36.845Z,18.12
2022-09-15T08:15:04.894Z,18.00
2022-09-15T08:17:31.460Z,17.87
2022-09-15T08:19:58.051Z,17.96
2022-09-15T08:22:25.042Z,17.83
2022-09-15T08:24:51.336Z,17.88
2022-09-15T08:27:17.695Z,17.76
2022-09-15T08:29:44.004Z,17.76
2022-09-15T08:32:12.658Z,17.74
2022-09-15T08:34:39.179Z,17.58
2022-09-15T08:37:05.481Z,17.51
2022-09-15T08:39:32.067Z,17.59
2022-09-15T08:42:01.872Z,17.69
2022-09-15T08:44:46.593Z,17.81
2022-09-15T08:47:16.771Z,17.79
2022-09-15T08:49:54.961Z,17.90
2022-09-15T08:52:54.074Z,17.99
2022-09-15T08:55:33.535Z,18.12
2022-09-15T08:57:59.873Z,18.13
2022-09-15T09:00:26.820Z,18.19
2022-09-15T09:03:17.516Z,17.95
2022-09-15T09:05:44.162Z,17.93
2022-09-15T09:08:38.124Z,17.93
2022-09-15T09:11:16.097Z,17.81
2022-09-15T09:13:49.616Z,17.81
2022-09-15T09:16:30.918Z,17.72
2022-09-15T09:19:21.372Z,17.74
2022-09-15T09:21:56.651Z,17.72
2022-09-15T09:24:37.302Z,17.86
2022-09-15T09:27:04.169Z,17.91
2022-09-15T09:29:39.011Z,18.00
2022-09-15T09:32:19.831Z,17.91
2022-09-15T09:34:55.724Z,17.85
2022-09-15T09:37:25.501Z,17.88
2022-09-15T09:39:52.235Z,17.76
2022-09-15T09:42:19.544Z,17.73
2022-09-15T09:44:47.406Z,17.74
2022-09-15T09:47:14.026Z,17.90
2022-09-15T09:49:46.740Z,17.96
2022-09-15T09:52:13.445Z,18.00
2022-09-15T09:54:39.804Z,18.06
2022-09-15T09:57:28.220Z,18.22
2022-09-15T09:59:55.201Z,18.26
2022-09-15T10:02:28.665Z,18.08
2022-09-15T10:05:19.160Z,17.93
2022-09-15T10:07:46.447Z,17.85
2022-09-15T10:10:25.874Z,17.88
2022-09-15T10:12:56.310Z,17.88
2022-09-15T10:15:40.447Z,17.88
2022-09-15T10:18:07.525Z,17.93
2022-09-15T10:20:52.217Z,17.94
2022-09-15T10:23:18.474Z,17.95
2022-09-15T10:26:00.806Z,18.02
2022-09-15T10:28:27.641Z,18.15
2022-09-15T10:31:07.442Z,18.19
2022-09-15T10:33:44.807Z,18.23
2022-09-15T10:36:18.624Z,18.24
2022-09-15T10:38:48.038Z,18.20
2022-09-15T10:41:25.671Z,18.29
2022-09-15T10:44:17.941Z,18.31
2022-09-15T10:47:03.100Z,18.44
2022-09-15T10:50:07.442Z,18.48
2022-09-15T10:52:52.330Z,18.65
2022-09-15T10:55:52.226Z,18.88
2022-09-15T10:58:25.404Z,18.91
2022-09-15T11:01:15.523Z,18.78
2022-09-15T11:04:22.126Z,18.59
2022-09-15T11:07:11.456Z,18.64
2022-09-15T11:09:54.104Z,18.69
2022-09-15T11:12:38.413Z,18.76
2022-09-15T11:15:20.143Z,18.63
2022-09-15T11:17:58.603Z,18.44
2022-09-15T11:20:40.844Z,18.42
2022-09-15T11:23:32.630Z,18.44
2022-09-15T11:26:09.637Z,18.39
2022-09-15T11:28:42.446Z,18.31
2022-09-15T11:31:16.880Z,18.41
2022-09-15T11:33:58.183Z,18.33
2022-09-15T11:36:47.178Z,18.40
2022-09-15T11:39:22.157Z,18.52
2022-09-15T11:41:56.305Z,18.46
2022-09-15T11:44:25.795Z,18.61
2022-09-15T11:46:58.507Z,18.65
2022-09-15T11:49:31.100Z,18.61
2022-09-15T11:52:18.846Z,18.67
2022-09-15T11:54:54.910Z,18.57
2022-09-15T11:57:26.913Z,18.61
2022-09-15T12:00:06.369Z,18.51
2022-09-15T12:02:54.261Z,18.52
2022-09-15T12:05:35.694Z,18.50
2022-09-15T12:08:24.583Z,18.71
2022-09-15T12:10:54.651Z,18.75
2022-09-15T12:13:24.100Z,18.71
2022-09-15T12:15:51.915Z,18.73
2022-09-15T12:18:39.362Z,18.69
2022-09-15T12:21:08.127Z,18.63
2022-09-15T12:23:45.300Z,18.58
2022-09-15T12:26:19.059Z,18.62
2022-09-15T12:28:54.248Z,18.69
2022-09-15T12:31:23.341Z,18.72
2022-09-15T12:33:53.558Z,18.68
2022-09-15T12:36:45.541Z,18.75
2022-09-15T12:39:36.472Z,18.81
2022-09-15T12:42:11.963Z,18.92
2022-09-15T12:44:44.707Z,19.02
2022-09-15T12:47:29.179Z,18.98
2022-09-15T12:50:08.619Z,19.00
2022-09-15T12:52:48.665Z,19.04
2022-09-15T12:55:32.113Z,19.02
2022-09-15T12:58:08.661Z,19.07
2022-09-15T13:01:00.594Z,19.08
2022-09-15T13:06:35.472Z,19.08
2022-09-15T13:09:01.741Z,19.28
2022-09-15T13:11:34.317Z,19.42
2022-09-15T13:14:03.596Z,19.49
2022-09-15T13:16:46.752Z,19.59
2022-09-15T13:19:21.964Z,19.82
2022-09-15T13:22:11.295Z,19.81
2022-09-15T13:24:59.182Z,19.79
2022-09-15T13:27:35.608Z,19.76
2022-09-15T13:30:30.181Z,19.83
2022-09-15T13:33:25.005Z,19.88
2022-09-15T13:36:13.157Z,19.76
2022-09-15T13:38:59.262Z,19.73
2022-09-15T13:41:34.789Z,19.74
2022-09-15T13:44:12.663Z,19.69
2022-09-15T13:46:58.744Z,19.71
2022-09-15T13:49:46.906Z,19.66
2022-09-15T13:52:19.108Z,19.49
2022-09-15T13:55:07.404Z,19.33
2022-09-15T14:00:30.601Z,19.38
2022-09-15T14:03:11.550Z,19.12
2022-09-15T14:05:38.347Z,19.13
2022-09-15T14:08:09.607Z,19.07
2022-09-15T14:10:46.579Z,18.94
2022-09-15T14:13:19.875Z,18.98
2022-09-15T14:16:01.468Z,19.01
2022-09-15T14:18:30.362Z,19.33
2022-09-15T14:21:01.313Z,19.57
2022-09-15T14:23:28.106Z,19.86
2022-09-15T14:25:54.736Z,19.82
2022-09-15T14:28:31.433Z,19.89
2022-09-15T14:31:02.573Z,19.92
2022-09-15T14:33:46.447Z,19.92
2022-09-15T14:36:26.101Z,19.85
2022-09-15T14:39:08.892Z,19.57
2022-09-15T14:41:36.598Z,19.38
2022-09-15T14:47:28.012Z,18.68
2022-09-15T14:50:13.248Z,18.50
2022-09-15T14:53:03.188Z,18.34
2022-09-15T14:55:41.529Z,18.22
2022-09-15T14:58:20.678Z,18.11
2022-09-15T15:01:06.700Z,18.25
2022-09-15T15:03:47.587Z,18.22
2022-09-15T15:06:30.006Z,18.19
2022-09-15T15:09:24.827Z,18.11
2022-09-15T15:11:56.663Z,18.08
2022-09-15T15:17:08.206Z,18.33
2022-09-15T15:19:39.471Z,18.35
2022-09-15T15:22:11.767Z,18.26
2022-09-15T15:24:43.977Z,18.17
2022-09-15T15:27:32.033Z,18.20
2022-09-15T15:30:26.455Z,18.19
2022-09-15T15:32:53.758Z,18.22
2022-09-15T15:35:20.616Z,18.19
2022-09-15T15:37:47.871Z,18.14
2022-09-15T15:40:18.014Z,18.16
2022-09-15T15:43:13.076Z,18.25
2022-09-15T15:45:50.973Z,18.35
2022-09-15T15:48:17.350Z,18.34
2022-09-15T15:50:44.039Z,18.40
2022-09-15T15:53:10.539Z,18.49
2022-09-15T15:55:40.016Z,18.51
2022-09-15T15:58:06.689Z,18.55
2022-09-15T16:00:38.852Z,18.59
2022-09-15T16:03:05.654Z,18.72
2022-09-15T16:05:32.696Z,18.98
2022-09-15T16:08:06.427Z,18.76
2022-09-15T16:10:39.751Z,18.42
2022-09-15T16:13:06.262Z,18.38
2022-09-15T16:15:32.823Z,18.25
2022-09-15T16:17:59.726Z,18.21
2022-09-15T16:20:30.515Z,18.20
2022-09-15T16:22:57.280Z,18.41
2022-09-15T16:25:34.000Z,18.45
2022-09-15T16:28:00.611Z,18.58
2022-09-15T16:30:27.656Z,18.71
2022-09-15T16:32:54.632Z,18.63
2022-09-15T16:35:29.647Z,18.38
2022-09-15T16:37:56.031Z,18.38
2022-09-15T16:40:22.396Z,18.44
2022-09-15T16:42:48.832Z,18.55
2022-09-15T16:45:34.040Z,18.64
2022-09-15T16:48:03.434Z,18.54
2022-09-15T16:50:30.494Z,18.34
2022-09-15T16:52:58.244Z,18.37
2022-09-15T16:55:35.747Z,18.65
2022-09-15T16:58:04.055Z,18.79
2022-09-15T17:00:36.608Z,18.63
2022-09-15T17:03:07.332Z,18.45
2022-09-15T17:05:47.819Z,18.57
2022-09-15T17:08:14.781Z,18.76
2022-09-15T17:10:45.489Z,18.82
2022-09-15T17:13:21.655Z,18.94
2022-09-15T17:15:54.096Z,18.96
2022-09-15T17:18:23.782Z,18.86
2022-09-15T17:20:50.742Z,18.67
2022-09-15T17:23:27.535Z,18.75
2022-09-15T17:25:57.400Z,18.70
2022-09-15T17:28:26.321Z,18.67
2022-09-15T17:31:01.021Z,18.70
2022-09-15T17:33:29.008Z,18.67
2022-09-15T17:35:55.387Z,18.64
2022-09-15T17:38:22.134Z,18.79
2022-09-15T17:40:49.897Z,18.71
2022-09-15T17:43:18.446Z,18.61
2022-09-15T17:45:45.565Z,18.54
2022-09-15T17:48:12.972Z,18.55
2022-09-15T17:50:41.619Z,18.47
2022-09-15T17:53:17.819Z,18.48
2022-09-15T17:55:44.172Z,18.47
2022-09-15T17:58:11.723Z,18.52
2022-09-15T18:00:42.332Z,18.67
2022-09-15T18:03:30.066Z,18.79
2022-09-15T18:05:58.426Z,18.92
2022-09-15T18:08:25.586Z,19.13
2022-09-15T18:10:52.001Z,19.33
2022-09-15T18:13:24.168Z,19.45
2022-09-15T18:15:51.110Z,19.65
2022-09-15T18:18:20.239Z,19.79
2022-09-15T18:20:47.599Z,19.89
2022-09-15T18:23:17.011Z,19.95
2022-09-15T18:25:44.221Z,19.97
2022-09-15T18:28:10.784Z,19.96
2022-09-15T18:30:43.101Z,20.04
2022-09-15T18:33:15.031Z,20.04
2022-09-15T18:35:42.198Z,20.15
2022-09-15T18:38:09.391Z,20.18
2022-09-15T18:40:36.485Z,20.16
2022-09-15T18:43:03.454Z,20.21
2022-09-15T18:45:29.751Z,20.24
2022-09-15T18:47:56.094Z,20.22
2022-09-15T18:50:24.016Z,20.15
2022-09-15T18:52:50.416Z,20.29
2022-09-15T18:55:21.709Z,20.30
2022-09-15T18:57:48.812Z,20.38
2022-09-15T19:00:19.077Z,20.38
2022-09-15T19:02:45.641Z,20.35
2022-09-15T19:05:15.140Z,20.37
2022-09-15T19:07:43.250Z,20.32
2022-09-15T19:10:10.913Z,20.28
2022-09-15T19:12:37.496Z,20.31
2022-09-15T19:15:10.558Z,20.30
2022-09-15T19:17:38.206Z,20.21
2022-09-15T19:20:06.591Z,20.07
2022-09-15T19:22:33.172Z,20.11
2022-09-15T19:24:59.527Z,20.18
2022-09-15T19:27:25.818Z,20.22
2022-09-15T19:29:52.135Z,20.25
2022-09-15T19:32:19.571Z,20.25
2022-09-15T19:34:47.124Z,20.24
2022-09-15T19:37:18.675Z,20.16
2022-09-15T19:39:46.197Z,20.16
2022-09-15T19:42:12.995Z,20.18
2022-09-15T19:44:41.145Z,20.20
2022-09-15T19:47:08.380Z,20.22
2022-09-15T19:49:34.799Z,20.26
2022-09-15T19:52:01.168Z,20.17
2022-09-15T19:54:29.787Z,20.17
2022-09-15T19:56:56.758Z,20.24
2022-09-15T19:59:27.454Z,20.23
2022-09-15T20:01:56.780Z,20.30
2022-09-15T20:04:23.249Z,20.25
2022-09-15T20:06:49.592Z,20.21
2022-09-15T20:09:16.180Z,20.11
2022-09-15T20:11:42.503Z,20.03
2022-09-15T20:14:09.171Z,20.09
2022-09-15T20:16:35.605Z,20.07
2022-09-15T20:19:03.981Z,20.05
2022-09-15T20:21:50.877Z,20.05
2022-09-15T20:24:18.595Z,20.06
2022-09-15T20:26:44.917Z,20.02
2022-09-15T20:29:11.707Z,20.01
2022-09-15T20:31:38.247Z,20.02
2022-09-15T20:34:04.708Z,20.02
2022-09-15T20:36:34.010Z,20.06
2022-09-15T20:39:03.154Z,20.05
2022-09-15T20:41:31.745Z,19.98
2022-09-15T20:43:58.221Z,19.98
2022-09-15T20:46:25.094Z,19.85
2022-09-15T20:48:52.582Z,19.72
2022-09-15T20:51:20.602Z,19.71
2022-09-15T20:53:49.591Z,19.75
2022-09-15T20:56:17.380Z,19.77
2022-09-15T20:58:44.135Z,19.79
2022-09-15T21:01:16.196Z,19.73
2022-09-15T21:03:44.241Z,19.56
2022-09-15T21:06:13.025Z,19.60
2022-09-15T21:08:39.610Z,19.69
2022-09-15T21:11:08.849Z,19.62
2022-09-15T21:13:38.605Z,19.65
2022-09-15T21:16:07.621Z,19.63
2022-09-15T21:18:36.449Z,19.57
2022-09-15T21:21:09.330Z,19.61
2022-09-15T21:23:37.058Z,19.57
2022-09-15T21:26:05.973Z,19.49
2022-09-15T21:28:33.837Z,19.50
2022-09-15T21:31:08.547Z,19.47
2022-09-15T21:33:36.958Z,19.43
2022-09-15T21:36:13.366Z,19.42
2022-09-15T21:38:41.623Z,19.47
2022-09-15T21:41:10.830Z,19.39
2022-09-15T21:43:39.142Z,19.43
2022-09-15T21:46:08.361Z,19.38
2022-09-15T21:48:35.378Z,19.33
2022-09-15T21:51:03.827Z,19.43
2022-09-15T21:53:30.698Z,19.29
2022-09-15T21:56:01.183Z,19.31
2022-09-15T21:58:31.870Z,19.33
2022-09-15T22:00:58.199Z,19.34
2022-09-15T22:03:24.994Z,19.36
2022-09-15T22:05:51.906Z,19.42
2022-09-15T22:08:18.289Z,19.38
2022-09-15T22:10:44.859Z,19.41
2022-09-15T22:13:11.803Z,19.31
2022-09-15T22:15:38.540Z,19.38
2022-09-15T22:18:05.033Z,19.26
2022-09-15T22:20:31.584Z,19.38
2022-09-15T22:23:01.203Z,19.35
2022-09-15T22:25:27.773Z,19.36
2022-09-15T22:27:54.100Z,19.40
2022-09-15T22:30:20.460Z,19.41
2022-09-15T22:32:47.070Z,19.35
2022-09-15T22:35:13.477Z,19.41
2022-09-15T22:37:39.866Z,19.41
2022-09-15T22:40:06.874Z,19.42
2022-09-15T22:42:33.245Z,19.45
2022-09-15T22:44:59.729Z,19.32
2022-09-15T22:47:26.281Z,19.32
2022-09-15T22:49:52.667Z,19.32
2022-09-15T22:52:21.010Z,19.21
2022-09-15T22:54:47.306Z,19.25
2022-09-15T22:57:13.614Z,19.13
2022-09-15T22:59:39.902Z,19.13
2022-09-15T23:02:06.217Z,19.12
2022-09-15T23:04:32.606Z,19.18
2022-09-15T23:06:58.900Z,19.23
2022-09-15T23:09:25.508Z,19.30
2022-09-15T23:11:51.825Z,19.13
2022-09-15T23:14:18.292Z,19.26
2022-09-15T23:16:44.904Z,19.32
2022-09-15T23:19:12.800Z,19.26
2022-09-15T23:21:39.451Z,19.28
2022-09-15T23:24:06.046Z,19.21
2022-09-15T23:26:32.389Z,19.21
2022-09-15T23:28:58.707Z,19.09
2022-09-15T23:31:25.121Z,19.08
2022-09-15T23:33:51.675Z,19.18
2022-09-15T23:36:19.402Z,19.12
2022-09-15T23:38:46.925Z,19.07
2022-09-15T23:41:14.965Z,19.10
2022-09-15T23:43:41.612Z,19.08
2022-09-15T23:46:08.219Z,19.08
2022-09-15T23:48:34.799Z,19.07
2022-09-15T23:51:01.864Z,18.93
2022-09-15T23:53:28.815Z,18.98
2022-09-15T23:55:55.623Z,19.04
2022-09-15T23:58:23.214Z,19.04
